Time;durP1;ratioP1;P1;durP2;ratioP2;P2;SDS_P1;SDS_P2;PMS_P1;PMS_P2;Temp;Humidity;BMP_temperature;BMP_pressure;BME280_temperature;BME280_humidity;BME280_pressure;Samples;Min_cycle;Max_cycle;Signal;HPM_P1;HPM_P2
2021/03/30 00:00:31;;;;;;;14.75;5.50;;;10.20;77.00;;;;;;5089712;28;20612;-64
2021/03/30 00:02:56;;;;;;;17.38;5.72;;;10.10;77.70;;;;;;5093513;28;20670;-65
2021/03/30 00:05:22;;;;;;;15.13;5.22;;;10.20;79.40;;;;;;5092219;28;20028;-64
2021/03/30 00:07:48;;;;;;;15.43;5.30;;;10.10;79.90;;;;;;5088874;28;20021;-64
2021/03/30 00:10:17;;;;;;;14.13;6.45;;;10.10;81.10;;;;;;5087153;28;20421;-64
2021/03/30 00:12:43;;;;;;;17.80;6.35;;;10.00;82.10;;;;;;5078165;28;20025;-63
2021/03/30 00:15:11;;;;;;;15.63;5.80;;;10.10;81.80;;;;;;5084722;28;20091;-64
2021/03/30 00:17:36;;;;;;;17.10;6.95;;;10.00;81.60;;;;;;5089481;28;20024;-64
2021/03/30 00:20:10;;;;;;;16.30;6.68;;;9.80;82.40;;;;;;5075656;28;20089;-64
2021/03/30 00:22:36;;;;;;;19.15;6.85;;;9.90;85.00;;;;;;5081351;28;20503;-64
2021/03/30 00:25:03;;;;;;;14.35;6.50;;;10.20;83.80;;;;;;5090335;28;20052;-64
2021/03/30 00:27:28;;;;;;;16.70;6.53;;;10.00;83.50;;;;;;5085346;28;20621;-64
2021/03/30 00:29:54;;;;;;;17.15;6.60;;;9.80;85.20;;;;;;5092273;28;20016;-64
2021/03/30 00:32:20;;;;;;;18.92;6.82;;;;;;;;;;5094768;28;20028;-64
2021/03/30 00:34:45;;;;;;;19.63;6.85;;;9.60;87.60;;;;;;5099327;28;20032;-64
2021/03/30 00:37:11;;;;;;;19.38;7.15;;;10.00;87.50;;;;;;5083094;28;20044;-64
2021/03/30 00:39:36;;;;;;;16.38;6.75;;;10.20;85.90;;;;;;5090998;28;20062;-64
2021/03/30 00:42:02;;;;;;;21.02;6.13;;;10.40;85.40;;;;;;5093249;28;20038;-64
2021/03/30 00:44:28;;;;;;;16.08;6.10;;;10.50;84.60;;;;;;5085869;28;20036;-64
2021/03/30 00:46:54;;;;;;;15.00;6.25;;;10.40;85.10;;;;;;5091593;28;20055;-64
2021/03/30 00:49:20;;;;;;;15.50;6.65;;;10.40;85.80;;;;;;5085480;28;20099;-64
2021/03/30 00:51:47;;;;;;;15.82;6.00;;;10.10;88.70;;;;;;5085214;28;20055;-64
2021/03/30 00:54:14;;;;;;;18.85;6.60;;;9.60;88.90;;;;;;5093248;28;20075;-64
2021/03/30 00:56:40;;;;;;;18.50;6.97;;;9.20;90.20;;;;;;5098177;28;20020;-64
2021/03/30 00:59:07;;;;;;;14.70;6.18;;;9.20;90.60;;;;;;5091728;28;20036;-64
2021/03/30 01:01:32;;;;;;;17.17;6.97;;;9.00;92.10;;;;;;5091270;28;20028;-64
2021/03/30 01:03:58;;;;;;;18.02;6.68;;;8.80;93.10;;;;;;5098124;28;20469;-64
2021/03/30 01:06:24;;;;;;;15.35;6.28;;;9.00;93.20;;;;;;5080982;28;20181;-63
2021/03/30 01:09:05;;;;;;;17.40;6.32;;;9.30;92.90;;;;;;5082874;28;20028;-64
2021/03/30 01:12:05;;;;;;;16.20;6.35;;;9.40;92.60;;;;;;5089557;28;20529;-64
2021/03/30 01:14:52;;;;;;;16.88;6.75;;;9.60;92.40;;;;;;5086009;28;20097;-63
2021/03/30 01:17:33;;;;;;;18.30;7.35;;;10.30;90.60;;;;;;5081700;28;20031;-64
2021/03/30 01:20:37;;;;;;;17.08;6.68;;;10.60;90.10;;;;;;5093486;28;20575;-63
2021/03/30 01:23:11;;;;;;;20.80;6.75;;;10.70;89.40;;;;;;5092864;28;20040;-64
2021/03/30 01:25:42;;;;;;;15.35;6.28;;;10.80;89.00;;;;;;5088614;28;20032;-63
2021/03/30 01:28:20;;;;;;;20.98;7.30;;;10.90;88.40;;;;;;5088028;28;20371;-63
2021/03/30 01:30:47;;;;;;;18.88;7.18;;;10.90;88.00;;;;;;5083625;28;20036;-63
2021/03/30 01:33:15;;;;;;;17.73;7.03;;;10.90;88.40;;;;;;5077364;28;20471;-64
2021/03/30 01:35:41;;;;;;;17.77;7.07;;;10.70;89.00;;;;;;5084874;28;20046;-64
2021/03/30 01:38:11;;;;;;;17.95;7.25;;;10.20;90.60;;;;;;5092178;28;20044;-64
2021/03/30 01:40:38;;;;;;;17.35;7.07;;;9.90;91.10;;;;;;5103582;28;20424;-63
2021/03/30 01:43:07;;;;;;;17.42;7.45;;;9.80;91.70;;;;;;5094246;28;20466;-64
2021/03/30 01:45:34;;;;;;;19.95;7.43;;;9.80;91.20;;;;;;5059697;28;20115;-64
2021/03/30 01:48:02;;;;;;;16.98;7.22;;;9.70;92.20;;;;;;5090646;28;20803;-65
2021/03/30 01:50:28;;;;;;;15.57;6.78;;;9.40;92.80;;;;;;5087035;28;20089;-64
2021/03/30 01:52:56;;;;;;;16.30;7.32;;;9.30;93.50;;;;;;5088903;28;20016;-64
2021/03/30 01:55:22;;;;;;;15.63;7.40;;;9.30;93.70;;;;;;5071686;28;20035;-64
2021/03/30 01:57:52;;;;;;;17.10;7.35;;;9.00;94.20;;;;;;5088547;28;20020;-63
2021/03/30 02:00:22;;;;;;;19.80;7.10;;;8.80;94.70;;;;;;5070849;28;20036;-64
2021/03/30 02:02:48;;;;;;;16.13;7.25;;;8.90;95.40;;;;;;5072144;28;20486;-64
2021/03/30 02:05:16;;;;;;;19.75;7.25;;;8.60;96.50;;;;;;5090781;28;20031;-64
2021/03/30 02:07:44;;;;;;;18.13;7.60;;;8.20;98.00;;;;;;5088363;28;20418;-64
2021/03/30 02:10:19;;;;;;;17.30;7.45;;;8.00;98.10;;;;;;5091529;28;20060;-64
2021/03/30 02:12:45;;;;;;;17.13;8.35;;;7.80;99.20;;;;;;5087356;28;20099;-64
2021/03/30 02:15:15;;;;;;;28.17;8.63;;;7.60;99.90;;;;;;5083607;28;20367;-64
2021/03/30 02:18:02;;;;;;;16.85;7.13;;;8.00;99.90;;;;;;5089685;28;20491;-64
2021/03/30 02:20:32;;;;;;;21.40;7.78;;;9.30;96.50;;;;;;5089796;28;20036;-63
2021/03/30 02:23:21;;;;;;;17.27;6.63;;;9.20;97.10;;;;;;5089925;28;20097;-63
2021/03/30 02:25:49;;;;;;;19.63;7.88;;;9.20;97.10;;;;;;5078102;28;20398;-64
2021/03/30 02:28:21;;;;;;;19.27;7.93;;;9.30;96.20;;;;;;5084934;28;20062;-64
2021/03/30 02:30:48;;;;;;;16.15;7.22;;;9.40;96.00;;;;;;5098201;28;20481;-64
2021/03/30 02:33:19;;;;;;;19.83;7.85;;;9.40;96.30;;;;;;5082795;28;20028;-64
2021/03/30 02:35:44;;;;;;;;;;;9.50;96.00;;;;;;5090044;28;20028;-64
2021/03/30 02:38:12;;;;;;;17.73;7.57;;;9.00;97.30;;;;;;5091344;28;19961;-64
2021/03/30 02:40:38;;;;;;;20.50;7.65;;;8.90;97.70;;;;;;5087520;28;20119;-64
2021/03/30 02:43:05;;;;;;;20.75;8.35;;;7.90;98.00;;;;;;5096700;28;20036;-64
2021/03/30 02:45:32;;;;;;;21.67;8.85;;;8.30;99.40;;;;;;5071529;28;20411;-64
2021/03/30 02:48:00;;;;;;;17.40;7.82;;;8.10;99.90;;;;;;5088558;28;20455;-64
2021/03/30 02:50:27;;;;;;;19.52;7.82;;;7.90;99.90;;;;;;5087534;28;20017;-64
2021/03/30 02:52:54;;;;;;;19.17;8.15;;;7.70;99.90;;;;;;5089909;28;20495;-64
2021/03/30 02:55:22;;;;;;;21.00;8.95;;;7.60;99.90;;;;;;5087337;28;20028;-64
2021/03/30 02:57:48;;;;;;;25.17;7.72;;;7.70;99.90;;;;;;5089381;28;20534;-63
2021/03/30 03:00:15;;;;;;;18.88;7.95;;;7.70;99.90;;;;;;5088997;28;20109;-64
2021/03/30 03:02:45;;;;;;;19.83;8.27;;;7.50;99.90;;;;;;5083393;28;20373;-64
2021/03/30 03:05:13;;;;;;;21.63;8.50;;;7.40;99.90;;;;;;5083257;28;20032;-64
2021/03/30 03:07:39;;;;;;;19.60;8.48;;;7.40;99.90;;;;;;5086790;28;20032;-64
2021/03/30 03:10:07;;;;;;;19.67;8.73;;;7.50;99.90;;;;;;5089868;28;20439;-64
2021/03/30 03:12:35;;;;;;;20.33;7.72;;;7.60;99.90;;;;;;5087930;28;20025;-64
2021/03/30 03:15:03;;;;;;;19.85;8.07;;;7.40;99.90;;;;;;5088942;28;20026;-64
2021/03/30 03:17:31;;;;;;;19.15;8.45;;;7.10;99.90;;;;;;5089041;28;20116;-63
2021/03/30 03:19:58;;;;;;;23.75;9.15;;;7.00;99.90;;;;;;5089565;28;20540;-63
2021/03/30 03:22:24;;;;;;;23.60;9.43;;;7.20;99.90;;;;;;5087417;28;20032;-63
2021/03/30 03:24:51;;;;;;;23.63;8.93;;;7.30;99.90;;;;;;5080506;28;20024;-64
2021/03/30 03:27:18;;;;;;;23.20;8.60;;;7.60;99.90;;;;;;5087966;28;20028;-63
2021/03/30 03:29:45;;;;;;;21.08;8.82;;;8.50;99.90;;;;;;5087409;28;20024;-64
2021/03/30 03:32:11;;;;;;;23.80;8.13;;;9.00;99.90;;;;;;5077092;28;20036;-63
2021/03/30 03:34:37;;;;;;;21.02;8.52;;;9.00;99.90;;;;;;5082945;28;20043;-63
2021/03/30 03:37:04;;;;;;;19.80;8.32;;;8.90;99.90;;;;;;5084689;28;20107;-64
2021/03/30 03:39:30;;;;;;;22.45;8.90;;;8.80;99.90;;;;;;5077599;28;20032;-64
2021/03/30 03:41:56;;;;;;;19.75;8.80;;;8.40;99.90;;;;;;5095788;28;20106;-63
2021/03/30 03:44:25;;;;;;;24.52;8.35;;;8.20;99.90;;;;;;5086953;28;20103;-63
2021/03/30 03:46:51;;;;;;;18.63;7.88;;;7.90;99.90;;;;;;5074548;28;20079;-63
2021/03/30 03:49:18;;;;;;;21.00;8.95;;;7.50;99.90;;;;;;5087983;28;20131;-64
2021/03/30 03:52:02;;;;;;;22.33;8.88;;;7.20;99.90;;;;;;5083960;28;20101;-64
2021/03/30 03:54:30;;;;;;;21.52;8.77;;;7.00;99.90;;;;;;5085393;28;20036;-64
2021/03/30 03:57:03;;;;;;;22.85;9.00;;;6.90;99.90;;;;;;5088740;28;20024;-64
2021/03/30 03:59:32;;;;;;;24.30;8.88;;;6.70;99.90;;;;;;5081929;28;20471;-63
2021/03/30 04:02:16;;;;;;;23.27;9.00;;;6.90;99.90;;;;;;5065074;28;20438;-63
2021/03/30 04:04:51;;;;;;;23.92;9.95;;;6.80;99.90;;;;;;5084093;28;20386;-64
2021/03/30 04:07:22;;;;;;;23.13;9.13;;;6.80;99.90;;;;;;5074441;28;20016;-65
2021/03/30 04:09:52;;;;;;;18.60;8.63;;;6.70;99.90;;;;;;5057080;28;20502;-64
2021/03/30 04:12:20;;;;;;;24.83;9.02;;;6.60;99.90;;;;;;5081887;28;20028;-63
2021/03/30 04:14:47;;;;;;;21.60;8.88;;;6.70;99.90;;;;;;5082096;28;20558;-65
2021/03/30 04:17:17;;;;;;;22.70;8.52;;;6.80;99.90;;;;;;5073710;28;20017;-65
2021/03/30 04:19:45;;;;;;;25.27;9.60;;;6.80;99.90;;;;;;5073567;28;20383;-65
2021/03/30 04:22:15;;;;;;;20.35;8.90;;;6.60;99.90;;;;;;5075573;28;20031;-66
2021/03/30 04:24:42;;;;;;;22.85;9.43;;;6.40;99.90;;;;;;5073494;28;20502;-65
2021/03/30 04:27:14;;;;;;;21.38;8.68;;;6.30;99.90;;;;;;5076718;28;20023;-65
2021/03/30 04:29:40;;;;;;;22.08;9.32;;;6.10;99.90;;;;;;5063403;28;20036;-65
2021/03/30 04:32:08;;;;;;;21.38;9.55;;;6.10;99.90;;;;;;5079579;28;20025;-65
2021/03/30 04:34:34;;;;;;;24.98;8.80;;;6.00;99.90;;;;;;5082545;28;20106;-65
2021/03/30 04:36:59;;;;;;;20.25;8.88;;;6.20;99.90;;;;;;5076730;28;20119;-64
2021/03/30 04:39:25;;;;;;;21.40;9.18;;;6.00;99.90;;;;;;5076625;28;20040;-66
2021/03/30 04:41:51;;;;;;;26.00;9.68;;;5.90;99.90;;;;;;5083274;28;20167;-66
2021/03/30 04:44:17;;;;;;;26.17;10.07;;;5.80;99.90;;;;;;5082084;28;20040;-66
2021/03/30 04:46:43;;;;;;;20.35;8.40;;;5.80;99.90;;;;;;5083717;28;20038;-65
2021/03/30 04:49:08;;;;;;;25.17;9.35;;;5.90;99.90;;;;;;5085320;28;20079;-64
2021/03/30 04:51:34;;;;;;;22.67;9.48;;;5.80;99.90;;;;;;5087941;28;20043;-64
2021/03/30 04:53:59;;;;;;;21.63;9.63;;;5.80;99.90;;;;;;5084100;28;20031;-63
2021/03/30 04:56:25;;;;;;;23.20;9.35;;;5.90;99.90;;;;;;5087037;28;20036;-64
2021/03/30 04:58:51;;;;;;;21.90;8.85;;;6.20;99.90;;;;;;5086373;28;20043;-65
2021/03/30 05:01:18;;;;;;;20.70;9.20;;;6.00;99.90;;;;;;5083840;28;20027;-64
2021/03/30 05:03:43;;;;;;;25.88;9.23;;;5.80;99.90;;;;;;5062092;28;20120;-64
2021/03/30 05:06:10;;;;;;;23.52;9.38;;;5.50;99.90;;;;;;5074820;28;20062;-64
2021/03/30 05:08:35;;;;;;;25.58;9.70;;;5.40;99.90;;;;;;5075352;28;20028;-64
2021/03/30 05:11:01;;;;;;;23.75;9.20;;;5.30;99.90;;;;;;5078992;28;20038;-63
2021/03/30 05:13:27;;;;;;;23.55;9.35;;;5.30;99.90;;;;;;5075124;28;20363;-64
2021/03/30 05:15:53;;;;;;;23.30;9.48;;;5.20;99.90;;;;;;5088337;28;20070;-64
2021/03/30 05:18:18;;;;;;;22.10;8.45;;;5.10;99.90;;;;;;5080827;28;20041;-65
2021/03/30 05:20:45;;;;;;;21.90;8.85;;;5.10;99.90;;;;;;5098110;28;20039;-65
2021/03/30 05:23:11;;;;;;;22.98;8.93;;;4.90;99.90;;;;;;5095659;28;20017;-65
2021/03/30 05:25:37;;;;;;;25.85;10.38;;;5.10;99.90;;;;;;5087225;28;20093;-65
2021/03/30 05:28:05;;;;;;;24.13;9.98;;;5.10;99.90;;;;;;5089147;28;20024;-66
2021/03/30 05:30:30;;;;;;;23.67;9.85;;;5.10;99.90;;;;;;5084706;28;20118;-66
2021/03/30 05:32:56;;;;;;;26.15;10.00;;;5.20;99.90;;;;;;5083662;28;20552;-65
2021/03/30 05:35:21;;;;;;;25.17;10.18;;;5.30;99.90;;;;;;5087186;28;20663;-64
2021/03/30 05:37:47;;;;;;;25.08;9.57;;;5.50;99.90;;;;;;5083405;28;20499;-64
2021/03/30 05:40:14;;;;;;;24.50;9.45;;;5.60;99.90;;;;;;5076401;28;20548;-64
2021/03/30 05:42:41;;;;;;;22.30;9.30;;;5.70;99.90;;;;;;5074320;28;20787;-66
2021/03/30 05:45:10;;;;;;;22.30;9.05;;;5.70;99.90;;;;;;5088595;28;20026;-64
2021/03/30 05:47:36;;;;;;;26.50;9.10;;;5.70;99.90;;;;;;5075521;28;20027;-64
2021/03/30 05:50:08;;;;;;;23.05;9.90;;;5.90;99.90;;;;;;5077064;28;20063;-65
2021/03/30 05:52:47;;;;;;;23.17;9.93;;;5.90;99.90;;;;;;5074611;28;20032;-64
2021/03/30 05:55:37;;;;;;;20.05;9.23;;;5.90;99.90;;;;;;5077984;28;20020;-64
2021/03/30 05:58:05;;;;;;;22.10;9.77;;;6.10;99.90;;;;;;5083600;28;20449;-65
2021/03/30 06:00:37;;;;;;;21.00;8.75;;;6.20;99.90;;;;;;5084519;28;20089;-64
2021/03/30 06:03:09;;;;;;;23.45;9.48;;;6.20;99.90;;;;;;5091531;28;20032;-64
2021/03/30 06:05:35;;;;;;;23.80;9.68;;;6.50;99.90;;;;;;5084567;28;20032;-64
2021/03/30 06:08:03;;;;;;;21.10;8.65;;;6.40;99.90;;;;;;5072646;28;20111;-64
2021/03/30 06:10:30;;;;;;;21.70;9.05;;;6.40;99.90;;;;;;5074611;28;20044;-64
2021/03/30 06:12:58;;;;;;;24.90;9.57;;;6.60;99.90;;;;;;5078109;28;20429;-64
2021/03/30 06:15:29;;;;;;;20.85;8.90;;;6.60;99.90;;;;;;5084010;28;20027;-65
2021/03/30 06:17:55;;;;;;;19.45;8.82;;;6.70;99.90;;;;;;5075475;28;20020;-64
2021/03/30 06:20:24;;;;;;;20.70;9.45;;;6.80;99.90;;;;;;5078680;28;20035;-64
2021/03/30 06:22:52;;;;;;;26.55;9.52;;;7.00;99.90;;;;;;5089377;28;20059;-64
2021/03/30 06:25:41;;;;;;;22.27;9.02;;;7.20;99.90;;;;;;5083131;28;20112;-64
2021/03/30 06:28:19;;;;;;;22.58;9.10;;;7.50;99.90;;;;;;5078890;28;20064;-65
2021/03/30 06:30:58;;;;;;;25.02;9.63;;;7.60;99.90;;;;;;5085637;28;20020;-65
2021/03/30 06:33:25;;;;;;;21.45;9.75;;;7.90;99.90;;;;;;5086760;28;20032;-64
2021/03/30 06:35:51;;;;;;;24.35;9.82;;;8.10;99.90;;;;;;5079504;28;20513;-64
2021/03/30 06:38:17;;;;;;;24.15;9.20;;;8.20;99.90;;;;;;5085196;28;20040;-64
2021/03/30 06:40:44;;;;;;;22.27;8.85;;;8.50;99.90;;;;;;5088016;28;20024;-64
2021/03/30 06:46:06;;;;;;;25.75;9.48;;;8.80;99.90;;;;;;5083157;28;20031;-64
2021/03/30 06:48:32;;;;;;;21.58;9.05;;;8.80;99.90;;;;;;5081006;28;20036;-65
2021/03/30 06:51:15;;;;;;;22.15;9.18;;;9.70;99.90;;;;;;5085634;28;20016;-64
2021/03/30 06:53:40;;;;;;;24.58;8.65;;;9.00;99.90;;;;;;5076615;28;20036;-66
2021/03/30 06:56:06;;;;;;;20.08;8.18;;;9.30;99.90;;;;;;5088645;28;20020;-64
2021/03/30 06:58:58;;;;;;;20.98;8.70;;;9.50;99.90;;;;;;5092149;28;20493;-64
2021/03/30 07:01:25;;;;;;;24.48;9.68;;;9.70;99.90;;;;;;5086861;28;20058;-64
2021/03/30 07:03:52;;;;;;;23.08;8.95;;;9.90;99.90;;;;;;5066652;28;20033;-64
2021/03/30 07:06:20;;;;;;;22.17;9.30;;;10.00;99.90;;;;;;5081370;28;20028;-65
2021/03/30 07:08:47;;;;;;;21.67;8.50;;;10.10;99.90;;;;;;5091132;28;20028;-65
2021/03/30 07:11:18;;;;;;;21.63;7.88;;;10.10;99.90;;;;;;5084882;28;20111;-65
2021/03/30 07:13:45;;;;;;;21.02;8.90;;;10.20;99.90;;;;;;5079865;28;20020;-65
2021/03/30 07:16:42;;;;;;;19.33;8.45;;;10.30;99.90;;;;;;5088052;28;20085;-64
2021/03/30 07:19:09;;;;;;;22.92;8.35;;;10.50;99.90;;;;;;5084008;28;20040;-64
2021/03/30 07:22:10;;;;;;;19.92;8.07;;;10.60;99.90;;;;;;5087954;28;20036;-65
2021/03/30 07:24:49;;;;;;;22.17;8.35;;;10.80;99.90;;;;;;5083992;28;20031;-65
2021/03/30 07:27:19;;;;;;;23.63;8.50;;;10.90;99.90;;;;;;5079676;28;20035;-65
2021/03/30 07:29:46;;;;;;;26.45;9.15;;;11.10;99.90;;;;;;5084780;28;20417;-65
2021/03/30 07:32:28;;;;;;;28.40;8.93;;;11.20;99.90;;;;;;5087502;28;20043;-64
2021/03/30 07:34:57;;;;;;;26.10;8.77;;;11.40;99.90;;;;;;5081534;28;20028;-64
2021/03/30 07:37:57;;;;;;;19.17;8.40;;;11.60;99.90;;;;;;5084338;28;20040;-65
2021/03/30 07:40:24;;;;;;;22.77;8.25;;;11.90;99.90;;;;;;5089836;28;20043;-65
2021/03/30 07:42:51;;;;;;;22.60;8.13;;;11.90;99.90;;;;;;5098111;28;20028;-65
2021/03/30 07:45:23;;;;;;;22.13;8.82;;;12.00;99.90;;;;;;5098716;28;20020;-65
2021/03/30 07:47:50;;;;;;;22.40;8.60;;;12.10;99.90;;;;;;5064417;28;20032;-65
2021/03/30 07:50:20;;;;;;;25.05;9.63;;;12.20;99.90;;;;;;5087357;28;20509;-65
2021/03/30 07:52:50;;;;;;;20.98;9.32;;;12.40;99.90;;;;;;5081641;28;20027;-65
2021/03/30 07:55:16;;;;;;;;;;;12.60;99.90;;;;;;5094679;28;20016;-65
2021/03/30 07:57:54;;;;;;;23.98;9.27;;;12.80;98.80;;;;;;5087535;28;19973;-65
2021/03/30 08:00:32;;;;;;;20.33;8.50;;;12.90;98.60;;;;;;5086748;28;20620;-65
2021/03/30 08:03:09;;;;;;;22.17;8.50;;;13.20;98.20;;;;;;5091904;28;20081;-65
2021/03/30 08:05:35;;;;;;;22.67;9.60;;;13.30;97.60;;;;;;5074201;28;20058;-65
2021/03/30 08:08:01;;;;;;;27.05;9.30;;;13.40;97.60;;;;;;5086972;28;20028;-65
2021/03/30 08:10:44;;;;;;;23.42;9.23;;;13.60;97.50;;;;;;5086336;28;20016;-65
2021/03/30 08:13:32;;;;;;;22.75;9.60;;;13.90;97.00;;;;;;5088028;28;20383;-65
2021/03/30 08:16:07;;;;;;;25.17;10.35;;;14.00;96.60;;;;;;5081847;28;20032;-65
2021/03/30 08:18:36;;;;;;;22.85;9.00;;;14.20;96.10;;;;;;5085142;28;20024;-65
2021/03/30 08:21:12;;;;;;;26.85;9.73;;;14.30;95.30;;;;;;5088619;28;20081;-65
2021/03/30 08:23:53;;;;;;;31.67;10.30;;;14.50;95.50;;;;;;5094824;28;20103;-65
2021/03/30 08:26:23;;;;;;;26.67;10.07;;;14.80;94.90;;;;;;5089819;28;20109;-65
2021/03/30 08:28:49;;;;;;;24.38;9.50;;;15.10;94.50;;;;;;5090900;28;20032;-65
2021/03/30 08:31:33;;;;;;;25.38;8.93;;;;;;;;;;5085823;28;20020;-65
2021/03/30 08:34:01;;;;;;;23.88;10.13;;;16.30;92.50;;;;;;5082237;28;20031;-65
2021/03/30 08:36:45;;;;;;;25.33;10.02;;;17.40;91.10;;;;;;5086333;28;20078;-65
2021/03/30 08:39:32;;;;;;;23.27;9.88;;;18.40;90.10;;;;;;5090810;28;20078;-65
2021/03/30 08:42:14;;;;;;;23.65;9.30;;;19.40;82.10;;;;;;5083161;28;20012;-65
2021/03/30 08:44:56;;;;;;;27.15;10.90;;;20.30;80.70;;;;;;5073700;28;20024;-66
2021/03/30 08:47:32;;;;;;;24.77;10.73;;;20.50;76.00;;;;;;5085542;28;20047;-66
2021/03/30 08:50:22;;;;;;;23.55;10.07;;;21.00;73.00;;;;;;5079522;28;20020;-66
2021/03/30 08:52:48;;;;;;;25.83;11.27;;;21.10;71.10;;;;;;5078044;28;20023;-66
2021/03/30 08:55:14;;;;;;;28.52;11.77;;;21.80;68.90;;;;;;5098541;28;20020;-66
2021/03/30 08:57:50;;;;;;;24.75;10.60;;;22.30;65.70;;;;;;5091660;28;20391;-66
2021/03/30 09:00:17;;;;;;;26.45;10.98;;;22.60;65.20;;;;;;5078615;28;20039;-66
2021/03/30 09:02:43;;;;;;;24.90;11.32;;;22.60;63.40;;;;;;5090663;28;20386;-66
2021/03/30 09:05:19;;;;;;;27.50;11.95;;;22.40;62.90;;;;;;5082372;28;20104;-68
2021/03/30 09:07:47;;;;;;;29.33;12.10;;;22.10;61.90;;;;;;5067088;28;20105;-66
2021/03/30 09:10:14;;;;;;;27.67;11.40;;;22.20;61.20;;;;;;5096438;28;20470;-67
2021/03/30 09:12:40;;;;;;;28.73;12.73;;;22.50;60.00;;;;;;5107093;28;20024;-66
2021/03/30 09:15:08;;;;;;;29.98;11.70;;;22.20;59.60;;;;;;5105878;28;20457;-65
2021/03/30 09:17:35;;;;;;;29.98;12.85;;;22.40;60.50;;;;;;5094150;28;20758;-66
2021/03/30 09:20:02;;;;;;;28.05;12.45;;;22.90;59.00;;;;;;5089432;28;20064;-66
2021/03/30 09:22:35;;;;;;;29.35;12.50;;;22.90;59.20;;;;;;5095537;28;20462;-66
2021/03/30 09:27:53;;;;;;;27.55;12.52;;;23.20;58.60;;;;;;5094204;28;20039;-66
2021/03/30 09:30:20;;;;;;;23.88;10.85;;;23.50;57.60;;;;;;5086250;28;20411;-65
2021/03/30 09:32:49;;;;;;;26.33;11.73;;;23.90;56.10;;;;;;5083167;28;20040;-66
2021/03/30 09:35:17;;;;;;;25.17;12.07;;;24.30;55.80;;;;;;5090207;28;20077;-66
2021/03/30 09:37:49;;;;;;;27.15;11.55;;;24.40;53.70;;;;;;5094077;28;20044;-66
2021/03/30 09:40:18;;;;;;;26.85;12.85;;;24.10;54.30;;;;;;5080772;28;20069;-66
2021/03/30 09:42:45;;;;;;;24.70;12.05;;;25.40;51.90;;;;;;5083444;28;20027;-66
2021/03/30 09:45:25;;;;;;;28.27;12.77;;;25.30;52.60;;;;;;5066267;28;20173;-66
2021/03/30 09:47:51;;;;;;;26.13;12.07;;;25.90;51.50;;;;;;5089991;28;20032;-66
2021/03/30 09:50:20;;;;;;;24.92;11.30;;;25.80;51.40;;;;;;5087333;28;20024;-66
2021/03/30 09:52:47;;;;;;;24.70;11.52;;;25.60;50.00;;;;;;5088916;28;20024;-67
2021/03/30 09:55:26;;;;;;;21.65;10.43;;;25.20;50.30;;;;;;5091254;28;20028;-66
2021/03/30 09:58:02;;;;;;;23.55;10.10;;;24.80;51.80;;;;;;5085909;28;20017;-66
2021/03/30 10:00:33;;;;;;;25.85;11.45;;;24.00;51.60;;;;;;5090329;28;20036;-65
2021/03/30 10:02:59;;;;;;;25.17;11.95;;;25.40;50.00;;;;;;5085790;28;20081;-66
2021/03/30 10:05:35;;;;;;;25.33;11.23;;;26.10;50.40;;;;;;5085890;28;20047;-66
2021/03/30 10:08:01;;;;;;;23.42;10.15;;;26.30;49.80;;;;;;5083034;28;20417;-66
2021/03/30 10:10:41;;;;;;;26.95;12.63;;;26.00;47.90;;;;;;5084035;28;20020;-66
2021/03/30 10:13:08;;;;;;;27.52;12.77;;;25.60;49.80;;;;;;5088570;28;20479;-66
2021/03/30 10:15:40;;;;;;;23.65;11.70;;;25.60;49.20;;;;;;5085658;28;20028;-66
2021/03/30 10:18:09;;;;;;;23.23;11.20;;;26.00;47.80;;;;;;5082810;28;20136;-66
2021/03/30 10:20:36;;;;;;;25.48;11.52;;;26.50;48.50;;;;;;5085070;28;20040;-66
2021/03/30 10:23:12;;;;;;;27.35;11.32;;;25.10;48.90;;;;;;5083919;28;20028;-66
2021/03/30 10:25:38;;;;;;;26.00;11.73;;;24.90;51.90;;;;;;5085423;28;20490;-66
2021/03/30 10:28:04;;;;;;;27.35;12.77;;;26.90;48.10;;;;;;5093227;28;20059;-66
2021/03/30 10:30:44;;;;;;;27.45;11.95;;;27.20;46.10;;;;;;5086932;28;20038;-66
2021/03/30 10:33:13;;;;;;;23.88;11.23;;;27.70;46.40;;;;;;5104472;28;20413;-66
2021/03/30 10:35:39;;;;;;;22.90;10.73;;;27.50;46.60;;;;;;5083555;28;20073;-66
2021/03/30 10:38:04;;;;;;;24.25;9.82;;;27.30;45.40;;;;;;5080860;28;20042;-67
2021/03/30 10:40:32;;;;;;;27.55;11.15;;;26.50;44.40;;;;;;5090131;28;20036;-66
2021/03/30 10:43:18;;;;;;;23.00;9.13;;;25.70;46.30;;;;;;5088812;28;20040;-66
2021/03/30 10:45:44;;;;;;;22.85;10.93;;;25.90;45.80;;;;;;5078911;28;20025;-66
2021/03/30 10:48:09;;;;;;;22.67;9.30;;;25.90;45.60;;;;;;5092219;28;20050;-67
2021/03/30 10:50:35;;;;;;;17.67;8.70;;;27.30;46.60;;;;;;5082947;28;20051;-67
2021/03/30 10:53:01;;;;;;;18.45;8.45;;;27.60;44.50;;;;;;5085439;28;20036;-66
2021/03/30 10:55:27;;;;;;;18.30;8.85;;;28.00;45.00;;;;;;5084216;28;20372;-67
2021/03/30 10:57:53;;;;;;;21.17;9.65;;;28.00;44.20;;;;;;5078088;28;20085;-67
2021/03/30 11:00:19;;;;;;;20.25;9.48;;;27.60;41.80;;;;;;5080484;28;20036;-67
2021/03/30 11:02:45;;;;;;;19.75;9.00;;;27.20;43.30;;;;;;5084926;28;20024;-66
2021/03/30 11:05:11;;;;;;;22.02;9.48;;;26.80;43.40;;;;;;5064441;28;20055;-68
2021/03/30 11:07:37;;;;;;;19.27;8.93;;;25.90;43.80;;;;;;5078943;28;20046;-67
2021/03/30 11:10:08;;;;;;;20.85;8.18;;;27.80;45.00;;;;;;5083477;28;20709;-66
2021/03/30 11:12:35;;;;;;;19.70;10.13;;;27.40;41.90;;;;;;5082535;28;20094;-66
2021/03/30 11:15:01;;;;;;;21.17;9.30;;;26.90;42.40;;;;;;5075828;28;20112;-67
2021/03/30 11:17:27;;;;;;;22.27;9.35;;;27.70;42.50;;;;;;5081228;28;20106;-67
2021/03/30 11:19:52;;;;;;;23.38;10.80;;;27.70;41.70;;;;;;5081025;28;20063;-67
2021/03/30 11:22:18;;;;;;;21.02;8.80;;;27.70;43.30;;;;;;5081614;28;20019;-67
2021/03/30 11:24:44;;;;;;;24.50;11.82;;;27.30;42.60;;;;;;5061684;28;20215;-67
2021/03/30 11:27:10;;;;;;;24.85;10.65;;;26.40;41.70;;;;;;5071973;28;20361;-67
2021/03/30 11:32:46;;;;;;;21.30;10.30;;;26.70;44.40;;;;;;5093307;28;20040;-67
2021/03/30 11:38:09;;;;;;;22.60;11.07;;;27.40;43.80;;;;;;4999404;28;20106;-67
2021/03/30 11:40:35;;;;;;;20.70;9.98;;;28.00;41.00;;;;;;5060429;28;20079;-67
2021/03/30 11:43:01;;;;;;;19.52;9.73;;;29.10;41.90;;;;;;5057108;28;20533;-66
2021/03/30 11:45:26;;;;;;;17.33;8.65;;;30.60;40.60;;;;;;5064153;28;20111;-67
2021/03/30 11:47:52;;;;;;;22.50;11.18;;;30.70;40.90;;;;;;5055535;28;20028;-67
2021/03/30 11:50:18;;;;;;;21.50;10.07;;;31.20;39.30;;;;;;5062893;28;20025;-67
2021/03/30 11:52:43;;;;;;;19.48;9.43;;;29.60;41.40;;;;;;5065568;28;20490;-67
2021/03/30 11:55:11;;;;;;;18.92;8.98;;;29.60;40.30;;;;;;5058006;28;20037;-67
2021/03/30 11:57:37;;;;;;;19.55;9.45;;;30.10;41.10;;;;;;5060847;28;20102;-67
2021/03/30 12:00:04;;;;;;;18.92;9.73;;;30.10;40.60;;;;;;5062284;28;20057;-66
2021/03/30 12:02:30;;;;;;;18.38;8.77;;;29.60;38.30;;;;;;5062389;28;20147;-67
2021/03/30 12:04:55;;;;;;;18.25;9.02;;;29.30;41.90;;;;;;5062429;28;20119;-66
2021/03/30 12:07:21;;;;;;;19.73;9.07;;;31.00;38.90;;;;;;5059734;28;20035;-66
2021/03/30 12:09:48;;;;;;;20.00;10.00;;;32.50;38.30;;;;;;5059974;28;20386;-67
2021/03/30 12:12:14;;;;;;;20.02;8.85;;;30.80;37.50;;;;;;5070470;28;20020;-66
2021/03/30 12:14:39;;;;;;;18.55;9.02;;;30.40;38.80;;;;;;5059804;28;20513;-67
2021/03/30 12:17:05;;;;;;;20.77;10.15;;;30.20;37.80;;;;;;5060219;28;20075;-67
2021/03/30 12:19:31;;;;;;;19.52;9.13;;;30.70;37.80;;;;;;5061159;28;20069;-66
2021/03/30 12:21:57;;;;;;;20.17;9.35;;;30.40;36.30;;;;;;5060027;28;20056;-67
2021/03/30 12:24:22;;;;;;;17.17;8.00;;;30.90;37.60;;;;;;5060766;28;20028;-66
2021/03/30 12:26:48;;;;;;;20.45;9.02;;;29.90;38.90;;;;;;5067317;28;20025;-66
2021/03/30 12:29:14;;;;;;;19.17;8.68;;;29.70;39.20;;;;;;5072612;28;20032;-66
2021/03/30 12:31:40;;;;;;;18.88;8.80;;;30.20;37.80;;;;;;5070043;28;20056;-67
2021/03/30 12:34:05;;;;;;;22.33;10.00;;;29.90;36.80;;;;;;5071975;28;20040;-66
2021/03/30 12:36:31;;;;;;;20.00;9.00;;;28.00;36.50;;;;;;5071393;28;20543;-66
2021/03/30 12:38:57;;;;;;;20.80;9.98;;;29.00;38.10;;;;;;5084991;28;20031;-66
2021/03/30 12:41:23;;;;;;;19.38;8.95;;;30.40;36.10;;;;;;5096347;28;20020;-66
2021/03/30 12:43:49;;;;;;;20.67;9.20;;;29.80;37.20;;;;;;5092661;28;20023;-67
2021/03/30 12:46:15;;;;;;;17.60;8.75;;;29.70;39.20;;;;;;5097641;28;20028;-67
2021/03/30 12:48:40;;;;;;;20.42;9.75;;;30.50;38.00;;;;;;5090145;28;20028;-67
2021/03/30 12:51:07;;;;;;;18.20;9.13;;;31.20;36.40;;;;;;5091188;28;20017;-66
2021/03/30 12:53:33;;;;;;;20.55;10.25;;;29.70;36.50;;;;;;5090964;28;20119;-67
2021/03/30 12:55:59;;;;;;;21.05;9.70;;;29.70;36.60;;;;;;5079727;28;20012;-67
2021/03/30 12:58:25;;;;;;;25.13;11.38;;;29.50;37.30;;;;;;5089932;28;20587;-66
2021/03/30 13:00:50;;;;;;;20.98;9.32;;;29.50;37.20;;;;;;5090621;28;20031;-67
2021/03/30 13:03:16;;;;;;;21.45;10.43;;;29.80;36.60;;;;;;5090166;28;20149;-68